Time;durP1;ratioP1;P1;durP2;ratioP2;P2;SDS_P1;SDS_P2;PMS_P1;PMS_P2;Temp;Humidity;BMP_temperature;BMP_pressure;BME280_temperature;BME280_humidity;BME280_pressure;Samples;Min_cycle;Max_cycle;Signal;HPM_P1;HPM_P2
2022/09/05 00:01:27;;;;;;;2.28;2.17;;;;;;;;;;5083791;28;20230;-69
2022/09/05 00:03:57;;;;;;;1.77;1.75;;;;;;;;;;5083726;28;20204;-69
2022/09/05 00:06:24;;;;;;;4.63;1.90;;;;;;;;;;5083712;28;20216;-69
2022/09/05 00:08:54;;;;;;;2.40;1.77;;;;;;;;;;5083256;28;20201;-69
2022/09/05 00:11:23;;;;;;;1.88;1.77;;;;;;;;;;5083395;28;20199;-69
2022/09/05 00:13:56;;;;;;;1.75;1.65;;;;;;;;;;5083685;28;20629;-69
2022/09/05 00:16:42;;;;;;;4.28;1.73;;;;;;;;;;5083466;28;20262;-69
2022/09/05 00:19:11;;;;;;;1.95;1.85;;;;;;;;;;5083200;28;20196;-69
2022/09/05 00:21:46;;;;;;;4.78;1.80;;;;;;;;;;5083200;28;20559;-69
2022/09/05 00:24:20;;;;;;;3.00;1.70;;;;;;;;;;5083181;28;20196;-69
2022/09/05 00:26:51;;;;;;;3.40;2.00;;;;;;;;;;5083199;28;20426;-69
2022/09/05 00:29:23;;;;;;;2.92;2.25;;;;;;;;;;5083031;28;20275;-69
2022/09/05 00:31:55;;;;;;;2.95;2.00;;;;;;;;;;5083131;28;20204;-69
2022/09/05 00:34:27;;;;;;;2.08;1.88;;;;;;;;;;5083173;28;20200;-69
2022/09/05 00:36:54;;;;;;;1.92;1.92;;;;;;;;;;5083234;28;20223;-69
2022/09/05 00:39:23;;;;;;;2.35;2.17;;;;;;;;;;5082818;28;20222;-69
2022/09/05 00:41:50;;;;;;;4.03;2.10;;;;;;;;;;5083019;28;20504;-69
2022/09/05 00:44:18;;;;;;;3.58;2.28;;;;;;;;;;5082958;28;20197;-69
2022/09/05 00:46:50;;;;;;;4.18;1.90;;;;;;;;;;5082695;28;20486;-69
2022/09/05 00:49:19;;;;;;;2.17;1.90;;;;;;;;;;5082750;28;20201;-70
2022/09/05 00:51:49;;;;;;;3.85;2.15;;;;;;;;;;5082892;28;20310;-69
2022/09/05 00:54:23;;;;;;;4.07;2.45;;;;;;;;;;5082687;28;20204;-69
2022/09/05 00:57:06;;;;;;;2.20;2.10;;;;;;;;;;5082619;28;20479;-69
2022/09/05 00:59:44;;;;;;;3.30;2.13;;;;;;;;;;5082579;28;20204;-69
2022/09/05 01:02:16;;;;;;;4.38;2.20;;;;;;;;;;5082701;28;20200;-69
2022/09/05 01:04:46;;;;;;;3.00;2.15;;;;;;;;;;5082480;28;20394;-69
2022/09/05 01:07:22;;;;;;;3.92;2.15;;;;;;;;;;5082546;28;20546;-69
2022/09/05 01:09:56;;;;;;;2.17;2.08;;;;;;;;;;5082239;28;20249;-69
2022/09/05 01:12:34;;;;;;;3.30;2.30;;;;;;;;;;5082545;28;20204;-69
2022/09/05 01:15:08;;;;;;;2.55;2.30;;;;;;;;;;5082251;28;20233;-69
2022/09/05 01:17:45;;;;;;;2.22;2.13;;;;;;;;;;5082461;28;20192;-69
2022/09/05 01:20:20;;;;;;;3.42;2.30;;;;;;;;;;5082344;28;20184;-69
2022/09/05 01:23:10;;;;;;;2.72;2.17;;;;;;;;;;5082512;28;20241;-70
2022/09/05 01:25:51;;;;;;;2.33;2.22;;;;;;;;;;5025765;28;20210;-69
2022/09/05 01:28:22;;;;;;;2.17;2.10;;;;;;;;;;5081651;28;20266;-69
2022/09/05 01:30:50;;;;;;;2.25;1.98;;;;;;;;;;5082173;28;20211;-69
2022/09/05 01:33:22;;;;;;;2.10;1.92;;;;;;;;;;5082208;28;20211;-69
2022/09/05 01:36:06;;;;;;;2.90;2.10;;;;;;;;;;5081774;28;20216;-69
2022/09/05 01:38:35;;;;;;;4.25;2.17;;;;;;;;;;5082389;28;20203;-69
2022/09/05 01:41:10;;;;;;;2.25;2.15;;;;;;;;;;5081975;28;20200;-69
2022/09/05 01:43:54;;;;;;;4.75;2.40;;;;;;;;;;5082187;28;20398;-69
2022/09/05 01:46:27;;;;;;;3.05;2.85;;;;;;;;;;5081706;28;20192;-70
2022/09/05 01:48:56;;;;;;;4.57;2.45;;;;;;;;;;5081912;28;20197;-69
2022/09/05 01:51:26;;;;;;;2.72;2.53;;;;;;;;;;5082391;28;20196;-69
2022/09/05 01:53:57;;;;;;;2.28;2.05;;;;;;;;;;5082019;28;20196;-69
2022/09/05 01:56:26;;;;;;;2.70;2.50;;;;;;;;;;5082089;28;20212;-69
2022/09/05 01:59:04;;;;;;;2.75;2.55;;;;;;;;;;5081604;28;20208;-69
2022/09/05 02:01:35;;;;;;;2.95;2.55;;;;;;;;;;5082009;28;20196;-69
2022/09/05 02:04:17;;;;;;;4.80;3.50;;;;;;;;;;5081986;28;20200;-69
2022/09/05 02:06:46;;;;;;;4.00;2.75;;;;;;;;;;5081779;28;20216;-69
2022/09/05 02:09:30;;;;;;;2.75;2.55;;;;;;;;;;5081703;28;20242;-69
2022/09/05 02:11:57;;;;;;;2.90;2.40;;;;;;;;;;5082039;28;20203;-69
2022/09/05 02:14:27;;;;;;;4.43;2.55;;;;;;;;;;5081950;28;20203;-69
2022/09/05 02:17:06;;;;;;;3.17;2.78;;;;;;;;;;5081846;28;20400;-69
2022/09/05 02:19:42;;;;;;;3.05;2.88;;;;;;;;;;5081498;28;20197;-70
2022/09/05 02:22:11;;;;;;;2.97;2.78;;;;;;;;;;5081993;28;20269;-69
2022/09/05 02:24:38;;;;;;;2.90;2.70;;;;;;;;;;5081893;28;20220;-69
2022/09/05 02:27:20;;;;;;;2.97;2.78;;;;;;;;;;5085415;28;20205;-69
2022/09/05 02:29:54;;;;;;;4.80;2.80;;;;;;;;;;5085349;28;20200;-69
2022/09/05 02:32:23;;;;;;;3.58;2.53;;;;;;;;;;5085334;28;20271;-69
2022/09/05 02:34:54;;;;;;;5.25;2.70;;;;;;;;;;5085285;28;20204;-69
2022/09/05 02:37:22;;;;;;;2.88;2.67;;;;;;;;;;5085340;28;20265;-69
2022/09/05 02:39:51;;;;;;;4.90;2.05;;;;;;;;;;5085170;28;20492;-69
2022/09/05 02:42:20;;;;;;;3.65;2.60;;;;;;;;;;5085776;28;20397;-69
2022/09/05 02:44:52;;;;;;;2.53;2.22;;;;;;;;;;5085030;28;20197;-69
2022/09/05 02:47:21;;;;;;;6.55;2.58;;;;;;;;;;5085101;28;20227;-69
2022/09/05 02:50:00;;;;;;;3.88;2.28;;;;;;;;;;5085016;28;20204;-69
2022/09/05 02:52:29;;;;;;;2.33;2.17;;;;;;;;;;5085118;28;20200;-69
2022/09/05 02:54:57;;;;;;;3.92;2.78;;;;;;;;;;5085003;28;20196;-69
2022/09/05 02:57:36;;;;;;;2.30;2.20;;;;;;;;;;5085110;28;20546;-69
2022/09/05 03:00:08;;;;;;;2.90;2.70;;;;;;;;;;5084801;28;20196;-69
2022/09/05 03:02:38;;;;;;;4.07;2.63;;;;;;;;;;5084816;28;20602;-69
2022/09/05 03:05:09;;;;;;;2.85;2.65;;;;;;;;;;5084965;28;20254;-69
2022/09/05 03:07:56;;;;;;;3.33;2.95;;;;;;;;;;5084802;28;20197;-69
2022/09/05 03:10:34;;;;;;;5.80;2.78;;;;;;;;;;5079533;28;20212;-69
2022/09/05 03:13:23;;;;;;;3.05;2.70;;;;;;;;;;5084869;28;20196;-69
2022/09/05 03:16:07;;;;;;;3.17;2.85;;;;;;;;;;5084547;28;20501;-69
2022/09/05 03:18:51;;;;;;;3.35;2.70;;;;;;;;;;5084363;28;20203;-69
2022/09/05 03:21:32;;;;;;;6.45;2.90;;;;;;;;;;5084685;28;20205;-69
2022/09/05 03:24:16;;;;;;;2.78;2.55;;;;;;;;;;5084548;28;20258;-69
2022/09/05 03:26:59;;;;;;;2.58;2.40;;;;;;;;;;5084419;28;20257;-69
2022/09/05 03:29:49;;;;;;;4.30;2.28;;;;;;;;;;5084243;28;20242;-69
2022/09/05 03:32:34;;;;;;;7.57;2.38;;;;;;;;;;5084573;28;20239;-69
2022/09/05 03:35:18;;;;;;;4.82;2.42;;;;;;;;;;5084242;28;20211;-69
2022/09/05 03:38:03;;;;;;;3.30;3.10;;;;;;;;;;5083726;28;20292;-69
2022/09/05 03:40:40;;;;;;;5.75;2.65;;;;;;;;;;5083940;28;20196;-69
2022/09/05 03:43:28;;;;;;;3.38;2.20;;;;;;;;;;5084081;28;20203;-69
2022/09/05 03:45:59;;;;;;;2.30;2.20;;;;;;;;;;5084160;28;20204;-69
2022/09/05 03:48:44;;;;;;;2.65;2.53;;;;;;;;;;5084138;28;20216;-69
2022/09/05 03:51:17;;;;;;;2.58;2.40;;;;;;;;;;5083740;28;20201;-69
2022/09/05 03:53:52;;;;;;;9.13;2.88;;;;;;;;;;5084199;28;20208;-69
2022/09/05 03:56:37;;;;;;;3.47;2.50;;;;;;;;;;5083904;28;20215;-69
2022/09/05 03:59:28;;;;;;;5.30;2.70;;;;;;;;;;5083651;28;20234;-70
2022/09/05 04:02:00;;;;;;;7.20;3.10;;;;;;;;;;5083791;28;20204;-70
2022/09/05 04:04:29;;;;;;;3.15;2.95;;;;;;;;;;5083879;28;20456;-70
2022/09/05 04:06:57;;;;;;;3.42;2.70;;;;;;;;;;5083707;28;20361;-70
2022/09/05 04:09:33;;;;;;;4.10;3.00;;;;;;;;;;5083442;28;20242;-70
2022/09/05 04:12:00;;;;;;;2.78;2.67;;;;;;;;;;5083604;28;20195;-70
2022/09/05 04:14:30;;;;;;;8.63;3.10;;;;;;;;;;5083396;28;20230;-70
2022/09/05 04:16:57;;;;;;;2.90;2.70;;;;;;;;;;5083234;28;20238;-70
2022/09/05 04:19:28;;;;;;;2.60;2.50;;;;;;;;;;5083348;28;20235;-69
2022/09/05 04:21:57;;;;;;;3.65;2.38;;;;;;;;;;5083354;28;20204;-69
2022/09/05 04:24:28;;;;;;;6.70;2.67;;;;;;;;;;5083290;28;20205;-68
2022/09/05 04:26:59;;;;;;;3.40;2.70;;;;;;;;;;5082933;28;20204;-68
2022/09/05 04:29:28;;;;;;;4.75;2.63;;;;;;;;;;5083142;28;20196;-68
2022/09/05 04:32:00;;;;;;;5.45;2.42;;;;;;;;;;5083159;28;20197;-68
2022/09/05 04:34:31;;;;;;;5.40;2.63;;;;;;;;;;5082937;28;20262;-68
2022/09/05 04:37:01;;;;;;;6.43;2.72;;;;;;;;;;5082789;28;20269;-68
2022/09/05 04:39:29;;;;;;;4.60;2.92;;;;;;;;;;5082634;28;20500;-68
2022/09/05 04:41:59;;;;;;;2.88;2.67;;;;;;;;;;5082971;28;20196;-68
2022/09/05 04:44:28;;;;;;;6.97;3.25;;;;;;;;;;5082641;28;20212;-68
2022/09/05 04:46:55;;;;;;;4.18;3.00;;;;;;;;;;5082630;28;20192;-68
2022/09/05 04:49:23;;;;;;;3.50;3.20;;;;;;;;;;5081090;28;20201;-68
2022/09/05 04:51:59;;;;;;;4.03;2.83;;;;;;;;;;5082294;28;20212;-68
2022/09/05 04:54:28;;;;;;;3.08;2.88;;;;;;;;;;5082929;28;20589;-68
2022/09/05 04:56:58;;;;;;;4.97;2.83;;;;;;;;;;5082749;28;20553;-68
2022/09/05 04:59:27;;;;;;;5.40;3.17;;;;;;;;;;5082005;28;20325;-68
2022/09/05 05:01:55;;;;;;;3.88;3.00;;;;;;;;;;5082237;28;20197;-68
2022/09/05 05:04:22;;;;;;;6.50;3.20;;;;;;;;;;5082024;28;20219;-68
2022/09/05 05:06:53;;;;;;;3.35;3.03;;;;;;;;;;5082313;28;20234;-68
2022/09/05 05:09:21;;;;;;;5.55;3.10;;;;;;;;;;5082233;28;20196;-68
2022/09/05 05:11:49;;;;;;;6.55;3.53;;;;;;;;;;5082419;28;20196;-68
2022/09/05 05:14:20;;;;;;;5.00;3.30;;;;;;;;;;5082193;28;20211;-68
2022/09/05 05:16:49;;;;;;;6.72;4.32;;;;;;;;;;5082244;28;20399;-68
2022/09/05 05:19:18;;;;;;;3.47;3.22;;;;;;;;;;5082006;28;20224;-68
2022/09/05 05:21:45;;;;;;;2.60;2.50;;;;;;;;;;5082144;28;20200;-68
2022/09/05 05:24:14;;;;;;;6.50;2.97;;;;;;;;;;5082190;28;20196;-68
2022/09/05 05:26:42;;;;;;;7.22;3.05;;;;;;;;;;5082013;28;20226;-68
2022/09/05 05:29:09;;;;;;;5.30;2.78;;;;;;;;;;5081703;28;20250;-68
2022/09/05 05:31:38;;;;;;;6.28;3.08;;;;;;;;;;5082388;28;20423;-68
2022/09/05 05:34:06;;;;;;;4.47;3.10;;;;;;;;;;5082194;28;20196;-68
2022/09/05 05:36:34;;;;;;;3.58;3.17;;;;;;;;;;5081927;28;20549;-63
2022/09/05 05:39:03;;;;;;;3.85;3.13;;;;;;;;;;5081431;28;20204;-63
2022/09/05 05:41:35;;;;;;;3.65;3.45;;;;;;;;;;5081497;28;20416;-63
2022/09/05 05:44:10;;;;;;;3.72;3.17;;;;;;;;;;5061469;28;20532;-63
2022/09/05 05:46:39;;;;;;;5.57;3.33;;;;;;;;;;5064335;28;20220;-62
2022/09/05 05:49:26;;;;;;;4.43;3.00;;;;;;;;;;5074754;28;20435;-63
2022/09/05 05:51:59;;;;;;;3.20;3.00;;;;;;;;;;5075893;28;20495;-63
2022/09/05 05:54:28;;;;;;;7.53;3.20;;;;;;;;;;5075225;28;20254;-64
2022/09/05 05:57:05;;;;;;;7.35;4.35;;;;;;;;;;5075566;28;20224;-63
2022/09/05 05:59:34;;;;;;;10.60;4.22;;;;;;;;;;5075954;28;20396;-64
2022/09/05 06:02:12;;;;;;;5.53;3.92;;;;;;;;;;5077142;28;20585;-64
2022/09/05 06:04:53;;;;;;;5.50;3.90;;;;;;;;;;5077775;28;20212;-63
2022/09/05 06:07:22;;;;;;;8.55;4.00;;;;;;;;;;5075374;28;20208;-65
2022/09/05 06:10:18;;;;;;;6.47;3.90;;;;;;;;;;5074865;28;20873;-63
2022/09/05 06:13:01;;;;;;;7.40;5.43;;;;;;;;;;5015358;28;20292;-63
2022/09/05 06:15:37;;;;;;;10.20;5.25;;;;;;;;;;5068825;28;20212;-64
2022/09/05 06:18:18;;;;;;;8.82;4.88;;;;;;;;;;5077425;28;20227;-64
2022/09/05 06:21:00;;;;;;;9.60;4.80;;;;;;;;;;5074498;28;20532;-64
2022/09/05 06:23:38;;;;;;;5.85;4.22;;;;;;;;;;5075254;28;20216;-64
2022/09/05 06:26:14;;;;;;;4.78;4.47;;;;;;;;;;5073712;28;20220;-64
2022/09/05 06:28:53;;;;;;;5.20;4.70;;;;;;;;;;5076714;28;20268;-64
2022/09/05 06:31:28;;;;;;;4.55;4.15;;;;;;;;;;5077003;28;20220;-63
2022/09/05 06:34:00;;;;;;;6.07;4.00;;;;;;;;;;5076663;28;20250;-63
2022/09/05 06:36:42;;;;;;;7.25;4.68;;;;;;;;;;5073200;28;20223;-64
2022/09/05 06:54:36;;;;;;;4.97;3.75;;;;;;;;;;5068071;28;20184;-64
2022/09/05 06:57:09;;;;;;;4.80;4.13;;;;;;;;;;5075353;28;20208;-65
2022/09/05 06:59:52;;;;;;;7.03;4.10;;;;;;;;;;5076874;28;20240;-63
2022/09/05 07:02:20;;;;;;;3.88;3.65;;;;;;;;;;5073334;28;20212;-63
2022/09/05 07:04:58;;;;;;;5.88;4.22;;;;;;;;;;5076030;28;20559;-63
2022/09/05 07:07:30;;;;;;;5.47;3.88;;;;;;;;;;5077344;28;20295;-64
2022/09/05 07:09:59;;;;;;;4.88;3.90;;;;;;;;;;5073577;28;20216;-63
2022/09/05 07:12:27;;;;;;;7.43;4.20;;;;;;;;;;5075950;28;20212;-63
2022/09/05 07:15:04;;;;;;;4.63;3.40;;;;;;;;;;5076190;28;20405;-64
2022/09/05 07:17:36;;;;;;;3.50;3.30;;;;;;;;;;5073654;28;20224;-63
2022/09/05 07:20:05;;;;;;;3.35;3.13;;;;;;;;;;5076952;28;20258;-65
2022/09/05 07:22:33;;;;;;;5.50;3.40;;;;;;;;;;5076739;28;20473;-64
2022/09/05 07:25:04;;;;;;;3.72;3.50;;;;;;;;;;5076422;28;20440;-64
2022/09/05 07:27:34;;;;;;;5.65;2.97;;;;;;;;;;5073445;28;20249;-64
2022/09/05 07:30:01;;;;;;;5.93;2.70;;;;;;;;;;5076523;28;20209;-64
2022/09/05 07:32:28;;;;;;;4.03;3.42;;;;;;;;;;5076413;28;20216;-64
2022/09/05 07:34:55;;;;;;;3.05;2.85;;;;;;;;;;5076222;28;20295;-64
2022/09/05 07:37:23;;;;;;;3.78;3.25;;;;;;;;;;5076338;28;20216;-64
2022/09/05 07:39:51;;;;;;;6.95;3.40;;;;;;;;;;5076225;28;20301;-64
2022/09/05 07:42:22;;;;;;;7.60;5.85;;;;;;;;;;5075966;28;20212;-64
2022/09/05 07:44:50;;;;;;;6.28;4.22;;;;;;;;;;5075144;28;20551;-64
2022/09/05 07:47:20;;;;;;;5.85;4.20;;;;;;;;;;5075996;28;20254;-64
2022/09/05 07:49:47;;;;;;;6.07;4.00;;;;;;;;;;5076154;28;20258;-65
2022/09/05 07:52:15;;;;;;;6.47;4.07;;;;;;;;;;5075744;28;20220;-64
2022/09/05 07:54:44;;;;;;;6.13;3.50;;;;;;;;;;5075536;28;20212;-63
2022/09/05 07:57:15;;;;;;;10.35;3.53;;;;;;;;;;5075760;28;20277;-63
2022/09/05 07:59:45;;;;;;;4.95;3.30;;;;;;;;;;5075676;28;20221;-63
2022/09/05 08:02:12;;;;;;;10.57;3.78;;;;;;;;;;5075689;28;20427;-65
2022/09/05 08:04:39;;;;;;;3.80;3.13;;;;;;;;;;5074979;28;20661;-65
2022/09/05 08:07:07;;;;;;;9.45;3.10;;;;;;;;;;5075200;28;20212;-65
2022/09/05 08:09:34;;;;;;;3.83;3.40;;;;;;;;;;5075431;28;20209;-64
2022/09/05 08:12:02;;;;;;;5.72;3.15;;;;;;;;;;5073291;28;20204;-64
2022/09/05 08:14:34;;;;;;;6.78;3.70;;;;;;;;;;5071446;28;20212;-64
2022/09/05 08:17:05;;;;;;;3.83;3.08;;;;;;;;;;5072367;28;20220;-64
2022/09/05 08:19:39;;;;;;;3.15;2.75;;;;;;;;;;5075373;28;20236;-64
2022/09/05 08:22:07;;;;;;;5.07;3.10;;;;;;;;;;5075524;28;20212;-63
2022/09/05 08:24:36;;;;;;;3.13;2.83;;;;;;;;;;5074608;28;20212;-63
2022/09/05 08:27:04;;;;;;;3.10;2.78;;;;;;;;;;5075271;28;20382;-63
2022/09/05 08:29:33;;;;;;;4.53;2.85;;;;;;;;;;5075819;28;20215;-63
2022/09/05 08:32:07;;;;;;;2.95;2.40;;;;;;;;;;5075762;28;20443;-63
2022/09/05 08:34:36;;;;;;;4.05;3.47;;;;;;;;;;5072246;28;20216;-63
2022/09/05 08:37:04;;;;;;;2.75;2.15;;;;;;;;;;5075255;28;20212;-63
2022/09/05 08:39:31;;;;;;;2.80;2.60;;;;;;;;;;5075486;28;20231;-63
2022/09/05 08:42:08;;;;;;;3.53;3.22;;;;;;;;;;5075782;28;20212;-64
2022/09/05 08:44:36;;;;;;;3.83;2.78;;;;;;;;;;5075043;28;20273;-63
2022/09/05 08:47:09;;;;;;;4.47;3.13;;;;;;;;;;5074890;28;20287;-64
2022/09/05 08:49:39;;;;;;;2.55;2.35;;;;;;;;;;5075113;28;20472;-63
2022/09/05 08:52:08;;;;;;;8.27;2.90;;;;;;;;;;5074945;28;20212;-63
2022/09/05 08:54:37;;;;;;;9.95;2.90;;;;;;;;;;5074322;28;20235;-63
2022/09/05 08:57:09;;;;;;;3.92;2.70;;;;;;;;;;5074937;28;20213;-63
2022/09/05 08:59:41;;;;;;;3.63;2.53;;;;;;;;;;5074674;28;20540;-63
2022/09/05 09:02:33;;;;;;;4.22;2.13;;;;;;;;;;5074885;28;20216;-63
2022/09/05 09:05:06;;;;;;;4.32;2.33;;;;;;;;;;5074731;28;20531;-63
2022/09/05 09:07:35;;;;;;;2.78;2.17;;;;;;;;;;5071705;28;20569;-63
2022/09/05 09:10:03;;;;;;;7.10;2.40;;;;;;;;;;5074831;28;20310;-64
2022/09/05 09:12:49;;;;;;;2.90;2.70;;;;;;;;;;5074860;28;20212;-64
2022/09/05 09:15:19;;;;;;;2.33;2.17;;;;;;;;;;5074958;28;20216;-64
2022/09/05 09:17:49;;;;;;;6.07;2.25;;;;;;;;;;5074840;28;20211;-64
2022/09/05 09:20:25;;;;;;;5.75;2.30;;;;;;;;;;5075170;28;20219;-65
2022/09/05 09:22:57;;;;;;;3.78;2.25;;;;;;;;;;5073828;28;20208;-65
2022/09/05 09:25:27;;;;;;;2.10;2.00;;;;;;;;;;5074244;28;20224;-65
2022/09/05 09:28:04;;;;;;;2.22;2.00;;;;;;;;;;5074453;28;20228;-65
2022/09/05 09:30:32;;;;;;;4.93;2.22;;;;;;;;;;5074542;28;20216;-63
2022/09/05 09:33:03;;;;;;;3.60;2.55;;;;;;;;;;5074036;28;20397;-62
2022/09/05 09:35:39;;;;;;;3.30;1.73;;;;;;;;;;5070564;28;20361;-63
2022/09/05 09:38:10;;;;;;;2.47;2.28;;;;;;;;;;5071298;28;20269;-63
2022/09/05 09:40:44;;;;;;;2.70;2.55;;;;;;;;;;5074118;28;20925;-65
2022/09/05 09:43:16;;;;;;;4.10;1.85;;;;;;;;;;5074295;28;20249;-64
2022/09/05 09:45:52;;;;;;;2.28;2.17;;;;;;;;;;5071954;28;20280;-64
2022/09/05 09:48:33;;;;;;;3.15;2.40;;;;;;;;;;5074299;28;20227;-64
2022/09/05 09:51:09;;;;;;;2.05;1.75;;;;;;;;;;5074572;28;20219;-63
2022/09/05 09:53:47;;;;;;;6.05;1.60;;;;;;;;;;5071614;28;20211;-63
2022/09/05 09:56:18;;;;;;;3.50;1.67;;;;;;;;;;5074619;28;20253;-64
2022/09/05 09:58:54;;;;;;;4.82;1.73;;;;;;;;;;5074259;28;20231;-66
2022/09/05 10:01:26;;;;;;;3.22;1.77;;;;;;;;;;5074159;28;20606;-66
2022/09/05 10:04:00;;;;;;;5.53;2.03;;;;;;;;;;5073866;28;20230;-65
2022/09/05 10:06:43;;;;;;;1.40;1.27;;;;;;;;;;5070635;28;20467;-65
2022/09/05 10:09:15;;;;;;;2.15;1.58;;;;;;;;;;5073919;28;20274;-65
2022/09/05 10:11:53;;;;;;;2.78;1.73;;;;;;;;;;5073760;28;20295;-65
2022/09/05 10:14:46;;;;;;;4.30;2.00;;;;;;;;;;5073537;28;20555;-65
2022/09/05 10:17:23;;;;;;;2.42;2.05;;;;;;;;;;5037331;28;20538;-65
2022/09/05 10:20:07;;;;;;;2.55;1.83;;;;;;;;;;5072358;28;20522;-64
2022/09/05 10:22:52;;;;;;;1.98;1.48;;;;;;;;;;5074032;28;20219;-64
2022/09/05 10:25:26;;;;;;;2.05;1.60;;;;;;;;;;5073182;28;20219;-64
2022/09/05 10:28:01;;;;;;;3.17;1.50;;;;;;;;;;5069592;28;20440;-65
2022/09/05 10:30:34;;;;;;;1.52;1.52;;;;;;;;;;5073735;28;20203;-64
2022/09/05 10:33:10;;;;;;;1.70;1.50;;;;;;;;;;5073837;28;20637;-63
2022/09/05 10:35:40;;;;;;;2.55;1.95;;;;;;;;;;5070636;28;20222;-64
2022/09/05 10:38:10;;;;;;;2.67;1.92;;;;;;;;;;5073477;28;20220;-62
2022/09/05 10:40:38;;;;;;;2.63;1.58;;;;;;;;;;5073483;28;20441;-66
2022/09/05 10:43:08;;;;;;;2.40;2.22;;;;;;;;;;5073239;28;20200;-64
2022/09/05 10:45:43;;;;;;;2.15;1.52;;;;;;;;;;5073322;28;20507;-63
2022/09/05 10:48:12;;;;;;;1.92;1.83;;;;;;;;;;5077232;28;20216;-64
2022/09/05 10:50:41;;;;;;;1.23;1.23;;;;;;;;;;5077247;28;20222;-64
2022/09/05 10:53:31;;;;;;;3.15;1.83;;;;;;;;;;5076965;28;20405;-64
2022/09/05 10:56:03;;;;;;;2.00;1.90;;;;;;;;;;5059245;28;20211;-65
2022/09/05 10:58:35;;;;;;;2.67;2.42;;;;;;;;;;5074176;28;20236;-64
2022/09/05 11:01:04;;;;;;;2.63;1.80;;;;;;;;;;5073945;28;20512;-64
2022/09/05 11:03:40;;;;;;;2.05;1.50;;;;;;;;;;5076752;28;20283;-64
2022/09/05 11:06:11;;;;;;;1.10;1.10;;;;;;;;;;5073817;28;20276;-64
2022/09/05 11:08:44;;;;;;;2.90;2.20;;;;;;;;;;5076880;28;20212;-64
2022/09/05 11:11:14;;;;;;;1.60;1.20;;;;;;;;;;5076862;28;20216;-64
2022/09/05 11:13:45;;;;;;;1.40;1.30;;;;;;;;;;5076226;28;20242;-66
2022/09/05 11:16:19;;;;;;;1.40;1.30;;;;;;;;;;5076689;28;20254;-64
2022/09/05 11:18:53;;;;;;;1.40;1.20;;;;;;;;;;5076461;28;20230;-64
2022/09/05 11:21:24;;;;;;;3.05;1.73;;;;;;;;;;5077192;28;20299;-65
2022/09/05 11:23:53;;;;;;;4.22;1.20;;;;;;;;;;5078925;28;20208;-64
2022/09/05 11:26:28;;;;;;;1.40;1.10;;;;;;;;;;5080019;28;20215;-64
2022/09/05 11:28:56;;;;;;;2.08;1.30;;;;;;;;;;5079330;28;20241;-64
2022/09/05 11:31:27;;;;;;;4.18;1.42;;;;;;;;;;5080413;28;20523;-65
2022/09/05 11:34:18;;;;;;;0.90;0.90;;;;;;;;;;5079426;28;20259;-65
2022/09/05 11:36:46;;;;;;;2.10;1.20;;;;;;;;;;5062072;28;20561;-65
2022/09/05 11:39:20;;;;;;;1.17;1.10;;;;;;;;;;5079349;28;20592;-66
2022/09/05 11:42:04;;;;;;;1.30;1.30;;;;;;;;;;5079403;28;20204;-66
2022/09/05 11:44:36;;;;;;;2.28;1.30;;;;;;;;;;5077313;28;20211;-64
2022/09/05 11:47:14;;;;;;;1.15;1.05;;;;;;;;;;5078700;28;20554;-64
2022/09/05 11:50:03;;;;;;;2.58;1.27;;;;;;;;;;5079033;28;20207;-65
2022/09/05 11:53:00;;;;;;;1.65;1.30;;;;;;;;;;5079493;28;20250;-66
2022/09/05 11:55:33;;;;;;;1.48;1.33;;;;;;;;;;5017031;28;20213;-63
2022/09/05 11:58:21;;;;;;;1.80;1.08;;;;;;;;;;5066897;28;20280;-67
2022/09/05 12:00:51;;;;;;;1.02;1.02;;;;;;;;;;5078837;28;20204;-65
2022/09/05 12:03:37;;;;;;;1.13;1.10;;;;;;;;;;5078904;28;20207;-66
2022/09/05 12:06:10;;;;;;;1.10;1.00;;;;;;;;;;5078721;28;20265;-65
2022/09/05 12:08:39;;;;;;;1.10;1.10;;;;;;;;;;5078893;28;20520;-65
2022/09/05 12:11:12;;;;;;;1.10;1.10;;;;;;;;;;5079497;28;20200;-65
2022/09/05 12:13:45;;;;;;;1.05;1.00;;;;;;;;;;5078503;28;20472;-64
2022/09/05 12:16:19;;;;;;;1.30;1.20;;;;;;;;;;5078788;28;20546;-64
2022/09/05 12:18:54;;;;;;;1.45;1.42;;;;;;;;;;5078716;28;20606;-64
2022/09/05 12:21:24;;;;;;;1.10;1.00;;;;;;;;;;5078391;28;20211;-64
2022/09/05 12:23:54;;;;;;;1.27;1.10;;;;;;;;;;5078400;28;20220;-65
2022/09/05 12:26:23;;;;;;;1.05;0.90;;;;;;;;;;5077144;28;20254;-65
2022/09/05 12:28:53;;;;;;;1.70;1.00;;;;;;;;;;5078498;28;20212;-65
2022/09/05 12:31:21;;;;;;;1.02;1.00;;;;;;;;;;5078403;28;20221;-65
2022/09/05 12:33:50;;;;;;;3.33;1.00;;;;;;;;;;5078060;28;20208;-63
2022/09/05 12:36:22;;;;;;;1.10;1.10;;;;;;;;;;5078266;28;20211;-64
2022/09/05 12:38:51;;;;;;;1.75;0.98;;;;;;;;;;5078301;28;20208;-63
2022/09/05 12:41:19;;;;;;;3.80;1.08;;;;;;;;;;5077729;28;20253;-65
2022/09/05 12:44:07;;;;;;;2.40;1.05;;;;;;;;;;5077565;28;20211;-63
2022/09/05 12:46:37;;;;;;;1.00;1.00;;;;;;;;;;5078611;28;20796;-64
2022/09/05 12:49:06;;;;;;;3.13;1.10;;;;;;;;;;5077754;28;20478;-65
2022/09/05 12:51:35;;;;;;;2.38;0.90;;;;;;;;;;5077626;28;20535;-64
2022/09/05 12:54:04;;;;;;;3.65;1.02;;;;;;;;;;5077501;28;20215;-64
2022/09/05 12:56:32;;;;;;;1.52;1.27;;;;;;;;;;5077799;28;20257;-64
2022/09/05 12:59:00;;;;;;;2.00;1.17;;;;;;;;;;5074619;28;20224;-64
2022/09/05 13:01:29;;;;;;;1.10;1.00;;;;;;;;;;5078046;28;20257;-64
2022/09/05 13:03:59;;;;;;;1.10;1.10;;;;;;;;;;5077571;28;20282;-62
2022/09/05 13:06:29;;;;;;;0.85;0.85;;;;;;;;;;5077115;28;20360;-63
2022/09/05 13:08:57;;;;;;;2.92;1.10;;;;;;;;;;5077150;28;20215;-64
2022/09/05 13:11:24;;;;;;;1.30;1.25;;;;;;;;;;5077290;28;20239;-63
2022/09/05 13:13:52;;;;;;;2.60;1.30;;;;;;;;;;5077550;28;20215;-64
2022/09/05 13:16:21;;;;;;;2.00;1.30;;;;;;;;;;5077808;28;20208;-64
2022/09/05 13:18:48;;;;;;;1.15;1.10;;;;;;;;;;5077006;28;20227;-64
2022/09/05 13:21:18;;;;;;;3.20;1.48;;;;;;;;;;5077323;28;20208;-64
2022/09/05 13:23:46;;;;;;;1.30;1.20;;;;;;;;;;5077699;28;20253;-63
2022/09/05 13:26:16;;;;;;;1.33;1.23;;;;;;;;;;5077388;28;20220;-64
2022/09/05 13:28:47;;;;;;;2.33;1.58;;;;;;;;;;5077519;28;20291;-64
2022/09/05 13:31:14;;;;;;;0.95;0.95;;;;;;;;;;5077615;28;20284;-64
2022/09/05 13:33:43;;;;;;;1.00;1.00;;;;;;;;;;5077481;28;20208;-64
2022/09/05 13:36:11;;;;;;;2.00;1.52;;;;;;;;;;5077167;28;20235;-64
2022/09/05 13:38:44;;;;;;;1.35;1.25;;;;;;;;;;5077166;28;20208;-65
2022/09/05 13:41:14;;;;;;;1.10;1.10;;;;;;;;;;5077124;28;20273;-64
2022/09/05 13:43:41;;;;;;;1.33;1.10;;;;;;;;;;5077237;28;20204;-64
2022/09/05 13:46:10;;;;;;;1.33;1.10;;;;;;;;;;5077532;28;20211;-64
2022/09/05 13:48:41;;;;;;;1.13;1.13;;;;;;;;;;5077249;28;20200;-63
2022/09/05 13:51:18;;;;;;;3.13;1.23;;;;;;;;;;5077304;28;20444;-64
2022/09/05 13:53:51;;;;;;;1.13;1.10;;;;;;;;;;5077055;28;20771;-63
2022/09/05 13:56:22;;;;;;;2.45;1.60;;;;;;;;;;5076791;28;20211;-64
2022/09/05 13:58:52;;;;;;;3.97;1.27;;;;;;;;;;5077008;28;20246;-63
2022/09/05 14:01:37;;;;;;;1.73;0.90;;;;;;;;;;5077016;28;20488;-64
2022/09/05 14:04:19;;;;;;;4.88;1.13;;;;;;;;;;5076518;28;20227;-64
2022/09/05 14:07:04;;;;;;;1.10;1.10;;;;;;;;;;5076655;28;20539;-64
2022/09/05 14:09:47;;;;;;;1.00;1.00;;;;;;;;;;5073188;28;20261;-64
2022/09/05 14:12:28;;;;;;;1.00;1.00;;;;;;;;;;5076608;28;20211;-64
2022/09/05 14:14:55;;;;;;;1.23;1.17;;;;;;;;;;5077099;28;20207;-65
2022/09/05 14:17:34;;;;;;;1.67;1.48;;;;;;;;;;5076738;28;20594;-63
2022/09/05 14:22:49;;;;;;;1.33;1.33;;;;;;;;;;5077986;28;20269;-64
2022/09/05 14:25:17;;;;;;;2.30;1.33;;;;;;;;;;5079060;28;20215;-65
2022/09/05 14:27:44;;;;;;;4.03;1.30;;;;;;;;;;5080769;28;20515;-64
2022/09/05 14:30:26;;;;;;;1.75;1.40;;;;;;;;;;5081096;28;20206;-64
2022/09/05 14:33:00;;;;;;;2.42;1.30;;;;;;;;;;5080199;28;20208;-65
2022/09/05 14:35:30;;;;;;;1.75;1.20;;;;;;;;;;5078679;28;20438;-64
2022/09/05 14:38:00;;;;;;;5.47;1.15;;;;;;;;;;5074549;28;20226;-65
2022/09/05 14:40:44;;;;;;;1.42;1.15;;;;;;;;;;5078020;28;20616;-64
2022/09/05 14:43:29;;;;;;;1.30;1.30;;;;;;;;;;5077265;28;20208;-64
2022/09/05 14:46:13;;;;;;;1.48;1.20;;;;;;;;;;5077903;28;20212;-65
2022/09/05 14:49:00;;;;;;;3.75;1.50;;;;;;;;;;5077534;28;20212;-65
2022/09/05 14:51:28;;;;;;;1.10;1.10;;;;;;;;;;5049456;28;20245;-65
2022/09/05 14:53:59;;;;;;;2.97;1.20;;;;;;;;;;5077526;28;20211;-64
2022/09/05 14:56:28;;;;;;;1.45;1.30;;;;;;;;;;5077657;28;20254;-65
2022/09/05 14:59:08;;;;;;;1.40;1.30;;;;;;;;;;5077526;28;20203;-64
2022/09/05 15:01:46;;;;;;;1.27;1.27;;;;;;;;;;5074116;28;20490;-64
2022/09/05 15:04:13;;;;;;;2.03;1.13;;;;;;;;;;5076759;28;20273;-64
2022/09/05 15:06:40;;;;;;;1.10;1.10;;;;;;;;;;5076931;28;20254;-65
2022/09/05 15:09:08;;;;;;;1.20;1.17;;;;;;;;;;5077242;28;20212;-65
2022/09/05 15:11:35;;;;;;;1.40;1.30;;;;;;;;;;5077156;28;20207;-65
2022/09/05 15:14:02;;;;;;;1.13;1.13;;;;;;;;;;5076768;28;20218;-64
2022/09/05 15:16:30;;;;;;;1.58;1.48;;;;;;;;;;5077005;28;20530;-65
2022/09/05 15:18:57;;;;;;;2.38;1.48;;;;;;;;;;5077373;28;20211;-64
2022/09/05 15:21:26;;;;;;;1.50;1.00;;;;;;;;;;5077218;28;20266;-64
2022/09/05 15:23:57;;;;;;;3.05;1.45;;;;;;;;;;5076736;28;20265;-64
2022/09/05 15:26:24;;;;;;;1.52;1.50;;;;;;;;;;5076992;28;20281;-64
2022/09/05 15:28:50;;;;;;;3.35;1.20;;;;;;;;;;5077207;28;20236;-64
2022/09/05 15:31:22;;;;;;;3.10;1.33;;;;;;;;;;5077434;28;20426;-64
2022/09/05 15:33:50;;;;;;;1.48;1.38;;;;;;;;;;5075847;28;20207;-64
2022/09/05 15:36:32;;;;;;;1.83;1.40;;;;;;;;;;5076568;28;20434;-65